createdAt,value
2018-05-03T00:01:12.633Z,16.92
2018-05-03T00:03:41.351Z,16.90
2018-05-03T00:08:45.869Z,16.88
2018-05-03T00:11:15.474Z,16.87
2018-05-03T00:13:45.496Z,16.84
2018-05-03T00:16:14.466Z,16.84
2018-05-03T00:18:43.271Z,16.83
2018-05-03T00:21:12.199Z,16.82
2018-05-03T00:23:48.531Z,16.80
2018-05-03T00:26:23.715Z,16.81
2018-05-03T00:28:52.629Z,16.79
2018-05-03T00:31:27.273Z,16.79
2018-05-03T00:33:58.425Z,16.78
2018-05-03T00:36:32.081Z,16.78
2018-05-03T00:39:01.348Z,16.76
2018-05-03T00:41:34.331Z,16.76
2018-05-03T00:44:04.725Z,16.72
2018-05-03T00:46:40.088Z,16.69
2018-05-03T00:49:10.532Z,16.69
2018-05-03T00:51:40.912Z,16.70
2018-05-03T00:54:23.424Z,16.69
2018-05-03T00:56:52.148Z,16.70
2018-05-03T00:59:21.820Z,16.65
2018-05-03T01:01:54.975Z,16.64
2018-05-03T01:04:23.860Z,16.67
2018-05-03T01:06:53.808Z,16.67
2018-05-03T01:09:22.405Z,16.66
2018-05-03T01:11:52.026Z,16.64
2018-05-03T01:14:21.428Z,16.63
2018-05-03T01:16:51.019Z,16.63
2018-05-03T01:19:20.543Z,16.60
2018-05-03T01:21:51.321Z,16.62
2018-05-03T01:24:20.995Z,16.61
2018-05-03T01:26:54.795Z,16.58
2018-05-03T01:29:25.078Z,16.55
2018-05-03T01:31:53.618Z,16.53
2018-05-03T01:34:22.903Z,16.52
2018-05-03T01:36:57.423Z,16.46
2018-05-03T01:39:31.385Z,16.43
2018-05-03T01:42:00.544Z,16.44
2018-05-03T01:44:29.430Z,16.43
2018-05-03T01:46:58.335Z,16.47
2018-05-03T01:49:27.118Z,16.49
2018-05-03T01:51:56.055Z,16.47
2018-05-03T01:54:25.533Z,16.46
2018-05-03T01:56:54.175Z,16.48
2018-05-03T01:59:23.040Z,16.48
2018-05-03T02:01:51.707Z,16.50
2018-05-03T02:04:20.901Z,16.47
2018-05-03T02:06:50.123Z,16.46
2018-05-03T02:09:33.987Z,16.40
2018-05-03T02:12:04.344Z,16.37
2018-05-03T02:14:37.415Z,16.38
2018-05-03T02:17:06.223Z,16.37
2018-05-03T02:19:39.671Z,16.36
2018-05-03T02:22:08.631Z,16.34
2018-05-03T02:24:37.209Z,16.34
2018-05-03T02:27:06.467Z,16.34
2018-05-03T02:29:35.988Z,16.33
2018-05-03T02:32:06.347Z,16.33
2018-05-03T02:34:37.971Z,16.33
2018-05-03T02:37:06.596Z,16.33
2018-05-03T02:39:38.877Z,16.32
2018-05-03T02:42:08.029Z,16.33
2018-05-03T02:44:38.003Z,16.30
2018-05-03T02:47:06.641Z,16.28
2018-05-03T02:49:35.255Z,16.27
2018-05-03T02:52:15.747Z,16.26
2018-05-03T02:54:44.880Z,16.21
2018-05-03T02:57:23.025Z,16.17
2018-05-03T03:00:03.979Z,16.19
2018-05-03T03:04:48.031Z,16.18
2018-05-03T03:07:33.841Z,16.15
2018-05-03T03:12:11.470Z,16.08
2018-05-03T03:15:56.055Z,16.08
2018-05-03T03:18:40.657Z,16.08
2018-05-03T03:25:35.270Z,16.04
2018-05-03T03:30:26.233Z,16.04
2018-05-03T03:34:11.123Z,16.00
2018-05-03T03:36:49.522Z,16.00
2018-05-03T03:41:33.875Z,15.99
2018-05-03T03:44:13.636Z,15.95
2018-05-03T03:46:42.669Z,15.91
2018-05-03T03:49:12.961Z,15.90
2018-05-03T03:51:42.026Z,15.91
2018-05-03T03:54:11.193Z,15.90
2018-05-03T03:56:39.772Z,15.88
2018-05-03T03:59:09.075Z,15.88
2018-05-03T04:01:38.136Z,15.88
2018-05-03T04:04:07.119Z,15.90
2018-05-03T04:06:35.847Z,15.89
2018-05-03T04:09:05.503Z,15.90
2018-05-03T04:16:55.690Z,15.91
2018-05-03T04:21:31.580Z,15.95
2018-05-03T04:25:19.252Z,15.93
2018-05-03T04:27:47.803Z,15.84
2018-05-03T04:30:16.632Z,15.84
2018-05-03T04:32:45.126Z,15.85
2018-05-03T04:35:14.177Z,15.87
2018-05-03T04:37:42.727Z,15.88
2018-05-03T04:40:11.210Z,15.91
2018-05-03T04:42:40.061Z,15.91
2018-05-03T04:45:08.891Z,15.91
2018-05-03T04:47:42.799Z,15.92
2018-05-03T04:50:11.416Z,15.93
2018-05-03T04:52:39.899Z,15.93
2018-05-03T04:55:08.416Z,15.96
2018-05-03T04:57:37.998Z,15.97
2018-05-03T05:00:06.526Z,15.98
2018-05-03T05:02:41.886Z,16.00
2018-05-03T05:05:10.431Z,16.00
2018-05-03T05:07:39.291Z,16.00
2018-05-03T05:10:07.864Z,16.02
2018-05-03T05:12:38.182Z,16.00
2018-05-03T05:15:06.650Z,15.99
2018-05-03T05:17:35.982Z,16.00
2018-05-03T05:20:05.532Z,16.02
2018-05-03T05:22:36.747Z,16.06
2018-05-03T05:25:05.446Z,16.05
2018-05-03T05:27:36.141Z,16.03
2018-05-03T05:30:06.318Z,16.01
2018-05-03T05:32:35.284Z,16.07
2018-05-03T05:35:04.161Z,16.08
2018-05-03T05:37:33.184Z,16.06
2018-05-03T05:40:06.243Z,16.10
2018-05-03T05:49:44.323Z,16.22
2018-05-03T05:52:20.250Z,16.24
2018-05-03T05:54:48.816Z,16.25
2018-05-03T05:57:17.515Z,16.26
2018-05-03T05:59:46.107Z,16.26
2018-05-03T06:02:15.070Z,16.27
2018-05-03T06:04:43.583Z,16.26
2018-05-03T06:07:12.394Z,16.26
2018-05-03T06:09:42.727Z,16.27
2018-05-03T06:12:11.262Z,16.28
2018-05-03T06:14:40.539Z,16.25
2018-05-03T06:17:09.054Z,16.22
2018-05-03T06:19:37.898Z,16.20
2018-05-03T06:22:07.134Z,16.24
2018-05-03T06:24:35.715Z,16.18
2018-05-03T06:27:15.331Z,16.15
2018-05-03T06:29:47.512Z,16.14
2018-05-03T06:32:16.321Z,16.18
2018-05-03T06:34:44.984Z,16.14
2018-05-03T06:37:14.058Z,16.12
2018-05-03T06:39:46.780Z,16.17
2018-05-03T06:42:15.783Z,16.20
2018-05-03T06:44:48.305Z,16.20
2018-05-03T06:47:16.943Z,16.23
2018-05-03T06:49:45.461Z,16.25
2018-05-03T06:52:14.366Z,16.25
2018-05-03T06:54:43.288Z,16.22
2018-05-03T06:57:11.823Z,16.21
2018-05-03T06:59:40.726Z,16.25
2018-05-03T07:02:11.445Z,16.24
2018-05-03T07:04:40.076Z,16.30
2018-05-03T07:07:09.638Z,16.30
2018-05-03T07:09:38.156Z,16.34
2018-05-03T07:12:13.424Z,16.40
2018-05-03T07:14:42.636Z,16.44
2018-05-03T07:17:11.202Z,16.44
2018-05-03T07:19:45.758Z,16.52
2018-05-03T07:22:14.461Z,16.53
2018-05-03T07:24:46.551Z,16.54
2018-05-03T07:27:15.683Z,16.53
2018-05-03T07:29:44.559Z,16.55
2018-05-03T07:32:13.432Z,16.59
2018-05-03T07:34:43.372Z,16.63
2018-05-03T07:37:12.024Z,16.65
2018-05-03T07:39:40.573Z,16.63
2018-05-03T07:42:09.530Z,16.69
2018-05-03T07:44:38.431Z,16.80
2018-05-03T07:47:07.774Z,16.86
2018-05-03T07:49:36.551Z,16.93
2018-05-03T07:52:05.705Z,16.91
2018-05-03T07:54:34.226Z,16.99
2018-05-03T07:57:03.174Z,16.95
2018-05-03T07:59:31.733Z,16.91
2018-05-03T08:02:00.295Z,17.03
2018-05-03T08:04:29.624Z,17.06
2018-05-03T08:06:58.208Z,17.10
2018-05-03T08:09:26.792Z,17.20
2018-05-03T08:11:55.743Z,17.28
2018-05-03T08:14:24.282Z,17.28
2018-05-03T08:16:52.859Z,17.29
2018-05-03T08:19:26.948Z,17.38
2018-05-03T08:21:55.533Z,17.36
2018-05-03T08:24:25.184Z,17.42
2018-05-03T08:26:53.827Z,17.45
2018-05-03T08:29:22.372Z,17.50
2018-05-03T08:31:51.654Z,17.51
2018-05-03T08:34:20.387Z,17.55
2018-05-03T08:36:49.077Z,17.57
2018-05-03T08:41:57.043Z,17.65
2018-05-03T08:44:25.561Z,17.71
2018-05-03T08:46:58.697Z,17.77
2018-05-03T08:49:27.547Z,17.81
2018-05-03T08:51:56.552Z,17.86
2018-05-03T08:54:25.136Z,18.05
2018-05-03T08:56:53.707Z,18.14
2018-05-03T08:59:22.632Z,18.28
2018-05-03T09:01:51.375Z,18.35
2018-05-03T09:04:19.926Z,18.52
2018-05-03T09:06:48.834Z,18.57
2018-05-03T09:09:17.680Z,18.60
2018-05-03T09:11:47.113Z,18.73
2018-05-03T09:14:17.188Z,18.81
2018-05-03T09:16:45.712Z,18.84
2018-05-03T09:19:14.257Z,18.96
2018-05-03T09:21:46.482Z,19.12
2018-05-03T09:24:15.231Z,19.26
2018-05-03T09:26:43.842Z,19.46
2018-05-03T09:29:12.791Z,19.59
2018-05-03T09:31:41.396Z,19.73
2018-05-03T09:34:09.982Z,19.67
2018-05-03T09:36:38.794Z,19.80
2018-05-03T09:39:07.493Z,19.90
2018-05-03T09:41:36.078Z,20.09
2018-05-03T09:44:07.923Z,20.22
2018-05-03T09:46:40.544Z,20.14
2018-05-03T09:49:09.113Z,20.30
2018-05-03T09:51:45.290Z,20.41
2018-05-03T09:54:14.072Z,20.63
2018-05-03T09:56:46.990Z,20.65
2018-05-03T09:59:15.647Z,20.67
2018-05-03T10:01:44.171Z,20.73
2018-05-03T10:04:14.326Z,20.78
2018-05-03T10:06:42.856Z,20.91
2018-05-03T10:09:11.375Z,21.33
2018-05-03T10:11:40.403Z,21.69
2018-05-03T10:14:11.561Z,22.04
2018-05-03T10:16:40.119Z,22.36
2018-05-03T10:19:10.834Z,22.50
2018-05-03T10:21:39.371Z,22.74
2018-05-03T10:24:08.359Z,23.16
2018-05-03T10:26:37.382Z,23.01
2018-05-03T10:29:05.942Z,23.01
2018-05-03T10:31:34.739Z,23.24
2018-05-03T10:34:06.664Z,23.52
2018-05-03T10:36:35.226Z,23.63
2018-05-03T10:39:05.497Z,23.74
2018-05-03T10:41:35.334Z,23.90
2018-05-03T10:44:04.623Z,24.17
2018-05-03T10:46:36.655Z,24.46
2018-05-03T10:49:05.317Z,24.74
2018-05-03T10:51:34.083Z,24.52
2018-05-03T10:54:05.400Z,24.60
2018-05-03T10:56:33.943Z,24.91
2018-05-03T10:59:02.787Z,25.01
2018-05-03T11:01:31.527Z,25.04
2018-05-03T11:04:05.185Z,25.22
2018-05-03T11:06:34.218Z,25.52
2018-05-03T11:09:07.638Z,25.44
2018-05-03T11:11:36.442Z,25.26
2018-05-03T11:14:05.907Z,25.15
2018-05-03T11:16:40.247Z,24.98
2018-05-03T11:19:08.775Z,25.17
2018-05-03T11:21:44.143Z,25.42
2018-05-03T11:24:12.699Z,25.56
2018-05-03T11:26:45.835Z,25.98
2018-05-03T11:29:14.775Z,26.43
2018-05-03T11:31:44.803Z,26.77
2018-05-03T11:34:13.319Z,27.27
2018-05-03T11:36:46.991Z,27.21
2018-05-03T11:39:19.680Z,27.10
2018-05-03T11:41:50.052Z,27.22
2018-05-03T11:44:21.372Z,27.26
2018-05-03T11:46:53.224Z,26.97
2018-05-03T11:49:24.073Z,26.63
2018-05-03T11:51:52.675Z,26.47
2018-05-03T11:54:23.632Z,26.38
2018-05-03T11:56:52.451Z,26.56
2018-05-03T11:59:25.220Z,26.31
2018-05-03T12:01:53.941Z,26.40
2018-05-03T12:04:23.052Z,26.18
2018-05-03T12:06:51.616Z,25.65
2018-05-03T12:09:22.650Z,25.41
2018-05-03T12:11:51.239Z,25.32
2018-05-03T12:14:19.851Z,25.69
2018-05-03T12:16:49.249Z,26.29
2018-05-03T12:19:19.986Z,26.49
2018-05-03T12:21:48.931Z,26.22
2018-05-03T12:24:17.624Z,25.77
2018-05-03T12:26:46.185Z,25.38
2018-05-03T12:29:15.521Z,25.14
2018-05-03T12:31:44.105Z,25.10
2018-05-03T12:34:12.661Z,25.36
2018-05-03T12:36:41.563Z,26.02
2018-05-03T12:39:10.099Z,26.04
2018-05-03T12:41:39.358Z,25.95
2018-05-03T12:44:08.230Z,26.12
2018-05-03T12:46:36.751Z,26.61
2018-05-03T12:49:05.811Z,27.11
2018-05-03T12:51:34.620Z,27.14
2018-05-03T12:54:04.322Z,27.46
2018-05-03T12:56:35.890Z,27.82
2018-05-03T12:59:04.890Z,28.25
2018-05-03T13:01:33.745Z,28.42
2018-05-03T13:04:04.151Z,28.73
2018-05-03T13:06:33.839Z,29.10
2018-05-03T13:09:02.523Z,29.43
2018-05-03T13:11:31.007Z,29.96
2018-05-03T13:13:59.781Z,29.79
2018-05-03T13:16:28.359Z,30.15
2018-05-03T13:18:56.918Z,30.58
2018-05-03T13:21:26.577Z,30.84
2018-05-03T13:23:55.138Z,30.81
2018-05-03T13:26:23.808Z,30.58
2018-05-03T13:28:52.895Z,30.67
2018-05-03T13:31:21.734Z,30.87
2018-05-03T13:33:51.142Z,31.04
2018-05-03T13:49:26.020Z,33.02
2018-05-03T13:51:54.629Z,33.46
2018-05-03T13:54:23.464Z,33.86
2018-05-03T13:56:54.447Z,33.80
2018-05-03T13:59:23.015Z,33.85
2018-05-03T14:01:57.762Z,33.88
2018-05-03T14:04:26.329Z,33.64
2018-05-03T14:06:54.957Z,33.38
2018-05-03T14:09:25.160Z,33.20
2018-05-03T14:11:53.671Z,32.99
2018-05-03T14:14:22.170Z,32.24
2018-05-03T14:16:50.963Z,32.72
2018-05-03T14:19:19.729Z,33.26
2018-05-03T14:21:51.435Z,33.35
2018-05-03T14:24:27.736Z,32.52
2018-05-03T14:26:56.564Z,32.58
2018-05-03T14:29:25.141Z,33.08
2018-05-03T14:31:53.915Z,33.31
2018-05-03T14:34:25.883Z,33.19
2018-05-03T14:36:54.501Z,32.62
2018-05-03T14:39:24.354Z,31.85
2018-05-03T14:41:52.931Z,31.08
2018-05-03T14:44:24.428Z,30.49
2018-05-03T14:46:53.307Z,30.08
2018-05-03T14:49:25.292Z,29.92
2018-05-03T14:52:04.877Z,29.32
2018-05-03T14:54:34.147Z,29.04
2018-05-03T14:57:03.070Z,29.41
2018-05-03T14:59:32.602Z,30.02
2018-05-03T15:02:05.919Z,30.51
2018-05-03T15:04:35.544Z,30.75
2018-05-03T15:07:04.915Z,30.70
2018-05-03T15:09:33.735Z,30.46
2018-05-03T15:12:04.127Z,30.93
2018-05-03T15:14:33.044Z,31.21
2018-05-03T15:17:02.139Z,31.68
2018-05-03T15:19:30.706Z,31.87
2018-05-03T15:21:59.232Z,32.06
2018-05-03T15:24:28.340Z,32.29
2018-05-03T15:26:56.867Z,32.59
2018-05-03T15:29:25.428Z,32.39
2018-05-03T15:31:56.909Z,32.14
2018-05-03T15:34:25.502Z,31.44
2018-05-03T15:36:54.042Z,30.74
2018-05-03T15:39:22.986Z,31.39
2018-05-03T15:41:51.527Z,31.70
2018-05-03T15:44:20.364Z,32.26
2018-05-03T15:46:49.837Z,32.19
2018-05-03T15:51:59.091Z,31.03
2018-05-03T15:54:27.596Z,31.66
2018-05-03T15:56:56.201Z,32.13
2018-05-03T15:59:25.187Z,31.95
2018-05-03T16:01:53.729Z,32.60
2018-05-03T16:04:22.279Z,32.65
2018-05-03T16:06:51.391Z,32.55
2018-05-03T16:09:21.069Z,32.31
2018-05-03T16:11:49.668Z,31.40
2018-05-03T16:14:18.612Z,30.33
2018-05-03T16:16:47.078Z,29.44
2018-05-03T16:19:15.931Z,28.66
2018-05-03T16:21:48.177Z,28.01
2018-05-03T16:24:17.048Z,27.54
2018-05-03T16:26:45.608Z,27.34
2018-05-03T16:29:29.339Z,27.20
2018-05-03T16:31:58.314Z,27.14
2018-05-03T16:34:30.765Z,27.17
2018-05-03T16:36:59.267Z,27.21
2018-05-03T16:39:27.835Z,27.29
2018-05-03T16:41:57.107Z,27.40
2018-05-03T16:44:26.554Z,27.39
2018-05-03T16:46:55.045Z,27.40
2018-05-03T16:49:26.539Z,27.48
2018-05-03T16:51:55.096Z,27.57
2018-05-03T16:54:24.849Z,27.28
2018-05-03T16:56:53.667Z,26.94
2018-05-03T16:59:32.256Z,26.73
2018-05-03T17:02:06.136Z,26.56
2018-05-03T17:04:34.662Z,26.42
2018-05-03T17:07:03.796Z,26.37
2018-05-03T17:09:33.148Z,26.28
2018-05-03T17:12:02.888Z,26.43
2018-05-03T17:14:31.609Z,26.56
2018-05-03T17:17:00.467Z,26.40
2018-05-03T17:19:32.651Z,26.37
2018-05-03T17:22:02.963Z,26.29
2018-05-03T17:24:33.895Z,26.29
2018-05-03T17:27:02.815Z,26.15
2018-05-03T17:29:35.905Z,26.19
2018-05-03T17:32:08.177Z,26.14
2018-05-03T17:34:37.100Z,26.03
2018-05-03T17:37:07.335Z,25.86
2018-05-03T17:39:35.954Z,25.56
2018-05-03T17:42:06.827Z,25.23
2018-05-03T17:44:35.360Z,25.02
2018-05-03T17:47:04.526Z,24.89
2018-05-03T17:49:33.341Z,24.70
2018-05-03T17:52:02.785Z,24.63
2018-05-03T17:54:31.614Z,24.50
2018-05-03T17:57:06.397Z,24.28
2018-05-03T17:59:35.307Z,24.09
2018-05-03T18:02:06.539Z,23.89
2018-05-03T18:04:35.466Z,23.90
2018-05-03T18:07:04.149Z,23.79
2018-05-03T18:09:33.050Z,23.64
2018-05-03T18:12:01.755Z,23.40
2018-05-03T18:14:31.402Z,23.32
2018-05-03T18:17:00.243Z,23.23
2018-05-03T18:19:28.871Z,23.15
2018-05-03T18:21:57.443Z,23.12
2018-05-03T18:24:27.460Z,23.12
2018-05-03T18:26:56.031Z,23.05
2018-05-03T18:29:28.564Z,23.00
2018-05-03T18:31:57.562Z,22.83
2018-05-03T18:34:26.192Z,22.83
2018-05-03T18:36:54.787Z,22.76
2018-05-03T18:39:26.790Z,22.70
2018-05-03T18:41:55.407Z,22.59
2018-05-03T18:44:25.272Z,22.56
2018-05-03T18:46:53.830Z,22.50
2018-05-03T18:49:27.588Z,22.37
2018-05-03T18:51:56.325Z,22.21
2018-05-03T18:54:24.968Z,22.04
2018-05-03T18:56:53.633Z,21.94
2018-05-03T18:59:22.650Z,21.82
2018-05-03T19:01:52.837Z,21.74
2018-05-03T19:04:22.760Z,21.65
2018-05-03T19:06:51.967Z,21.58
2018-05-03T19:09:20.787Z,21.52
2018-05-03T19:11:49.627Z,21.46
2018-05-03T19:14:23.361Z,21.31
2018-05-03T19:16:51.970Z,21.29
2018-05-03T19:19:22.424Z,21.23
2018-05-03T19:21:55.051Z,20.97
2018-05-03T19:24:30.288Z,20.86
2018-05-03T19:26:58.881Z,20.92
2018-05-03T19:29:28.213Z,20.90
2018-05-03T19:31:56.809Z,20.86
2018-05-03T19:34:25.408Z,20.79
2018-05-03T19:36:54.263Z,20.66
2018-05-03T19:39:23.351Z,20.60
2018-05-03T19:41:51.882Z,20.54
2018-05-03T19:44:21.900Z,20.53
2018-05-03T19:46:50.459Z,20.52
2018-05-03T19:49:23.139Z,20.49
2018-05-03T19:51:52.115Z,20.36
2018-05-03T19:54:26.710Z,20.29
2018-05-03T19:56:55.336Z,20.22
2018-05-03T19:59:24.187Z,20.19
2018-05-03T20:01:52.759Z,20.15
2018-05-03T20:04:22.195Z,20.14
2018-05-03T20:06:51.189Z,20.05
2018-05-03T20:09:19.774Z,20.06
2018-05-03T20:11:48.640Z,20.00
2018-05-03T20:14:17.979Z,19.98
2018-05-03T20:16:47.148Z,19.87
2018-05-03T20:19:17.550Z,19.81
2018-05-03T20:21:46.632Z,19.77
2018-05-03T20:24:16.019Z,19.78
2018-05-03T20:26:44.550Z,19.77
2018-05-03T20:29:15.120Z,19.77
2018-05-03T20:31:43.695Z,19.72
2018-05-03T20:34:12.323Z,19.64
2018-05-03T20:36:41.184Z,19.54
2018-05-03T20:39:09.793Z,19.49
2018-05-03T20:41:38.422Z,19.44
2018-05-03T20:44:08.527Z,19.42
2018-05-03T20:46:37.006Z,19.44
2018-05-03T20:49:05.526Z,19.44
2018-05-03T20:51:37.048Z,19.35
2018-05-03T20:54:06.492Z,19.35
2018-05-03T20:56:35.040Z,19.35
2018-05-03T20:59:03.795Z,19.37
2018-05-03T21:01:32.390Z,19.32
2018-05-03T21:04:01.265Z,19.28
2018-05-03T21:06:30.102Z,19.23
2018-05-03T21:08:58.584Z,19.17
2018-05-03T21:14:04.146Z,19.02
2018-05-03T21:16:33.323Z,18.93
2018-05-03T21:19:03.617Z,18.89
2018-05-03T21:21:32.238Z,18.81
2018-05-03T21:24:05.208Z,18.83
2018-05-03T21:26:34.289Z,18.83
2018-05-03T21:29:08.443Z,18.77
2018-05-03T21:31:36.979Z,18.74
2018-05-03T21:34:11.258Z,18.73
2018-05-03T21:36:39.847Z,18.74
2018-05-03T21:39:08.666Z,18.74
2018-05-03T21:41:37.860Z,18.74
2018-05-03T21:46:40.007Z,18.64
2018-05-03T21:49:08.524Z,18.65
2018-05-03T21:51:37.048Z,18.67
2018-05-03T21:54:06.666Z,18.65
2018-05-03T21:56:45.150Z,18.65
2018-05-03T21:59:14.123Z,18.61
2018-05-03T22:01:45.180Z,18.62
2018-05-03T22:04:14.017Z,18.67
2018-05-03T22:06:43.599Z,18.65
2018-05-03T22:09:12.150Z,18.61
2018-05-03T22:11:40.713Z,18.60
2018-05-03T22:14:09.690Z,18.57
2018-05-03T22:16:38.646Z,18.52
2018-05-03T22:19:09.376Z,18.49
2018-05-03T22:21:38.255Z,18.48
2018-05-03T22:24:06.905Z,18.45
2018-05-03T22:26:35.485Z,18.44
2018-05-03T22:29:04.891Z,18.41
2018-05-03T22:31:37.929Z,18.37
2018-05-03T22:34:06.516Z,18.35
2018-05-03T22:36:43.737Z,18.31
2018-05-03T22:39:12.766Z,18.31
2018-05-03T22:41:43.177Z,18.30
2018-05-03T22:44:12.389Z,18.30
2018-05-03T22:46:41.015Z,18.27
2018-05-03T22:49:10.156Z,18.27
2018-05-03T22:51:42.354Z,18.24
2018-05-03T22:54:10.901Z,18.23
2018-05-03T22:56:42.286Z,18.21
2018-05-03T22:59:11.023Z,18.19
2018-05-03T23:01:39.604Z,18.15
2018-05-03T23:04:08.390Z,18.10
2018-05-03T23:06:38.771Z,18.12
2018-05-03T23:09:07.345Z,18.08
2018-05-03T23:11:38.736Z,18.01
2018-05-03T23:14:07.403Z,17.88
2018-05-03T23:16:39.745Z,17.83
2018-05-03T23:19:08.442Z,17.84
2018-05-03T23:21:37.063Z,17.81
2018-05-03T23:24:05.902Z,17.78
2018-05-03T23:26:34.454Z,17.74
2018-05-03T23:29:03.815Z,17.70
2018-05-03T23:31:32.624Z,17.66
2018-05-03T23:34:01.378Z,17.61
2018-05-03T23:36:30.061Z,17.52
2018-05-03T23:38:58.895Z,17.55
2018-05-03T23:41:27.439Z,17.55
2018-05-03T23:43:56.004Z,17.50
2018-05-03T23:46:25.095Z,17.53
2018-05-03T23:48:53.683Z,17.45
2018-05-03T23:51:22.751Z,17.38
2018-05-03T23:53:51.544Z,17.40
2018-05-03T23:56:19.998Z,17.42
2018-05-03T23:58:48.805Z,17.38
